Time;durP1;ratioP1;P1;durP2;ratioP2;P2;SDS_P1;SDS_P2;PMS_P1;PMS_P2;Temp;Humidity;BMP_temperature;BMP_pressure;BME280_temperature;BME280_humidity;BME280_pressure;Samples;Min_cycle;Max_cycle;Signal;HPM_P1;HPM_P2
2022/03/06 00:00:40;;;;;;;17.70;10.07;;;1.10;63.30;;;;;;4962286;29;20053;-80
2022/03/06 06:01:38;;;;;;;20.52;10.20;;;-1.00;94.00;;;;;;5417102;23;20110;-83
2022/03/06 06:04:05;;;;;;;22.63;11.40;;;-1.10;94.10;;;;;;4991030;28;20077;-88
2022/03/06 06:06:33;;;;;;;22.60;11.93;;;-1.10;94.10;;;;;;4991142;28;20085;-84
2022/03/06 06:09:00;;;;;;;22.75;11.30;;;-1.00;94.00;;;;;;4990828;28;20050;-86
2022/03/06 06:11:27;;;;;;;20.77;10.93;;;-1.10;93.90;;;;;;4991643;28;20102;-89
2022/03/06 06:13:54;;;;;;;20.65;11.25;;;-1.10;93.90;;;;;;4990845;28;20082;-86
2022/03/06 06:16:21;;;;;;;22.88;10.57;;;-1.10;94.00;;;;;;4993428;28;20126;-86
2022/03/06 06:18:49;;;;;;;23.13;11.20;;;-1.10;94.00;;;;;;5003834;28;20049;-83
2022/03/06 06:21:18;;;;;;;21.45;10.98;;;-1.10;94.10;;;;;;5004675;28;20096;-81
2022/03/06 06:23:45;;;;;;;23.60;11.47;;;-1.10;94.00;;;;;;5009420;28;20046;-80
2022/03/06 06:26:13;;;;;;;20.52;10.30;;;-1.10;94.20;;;;;;5009443;28;20050;-80
2022/03/06 06:28:40;;;;;;;22.42;10.52;;;-1.10;94.20;;;;;;4996394;28;20062;-80
2022/03/06 06:31:07;;;;;;;22.25;10.85;;;-1.10;94.40;;;;;;4989614;28;20114;-82
2022/03/06 06:33:35;;;;;;;22.60;11.20;;;-1.10;94.50;;;;;;5004320;28;20056;-77
2022/03/06 06:36:05;;;;;;;20.88;10.55;;;-1.10;94.50;;;;;;5007659;28;20141;-80
2022/03/06 06:38:32;;;;;;;20.15;10.55;;;-1.10;94.50;;;;;;4996413;28;20046;-81
2022/03/06 06:40:59;;;;;;;20.38;10.40;;;-1.10;94.50;;;;;;4996817;28;20110;-83
2022/03/06 06:43:26;;;;;;;20.85;10.15;;;-1.10;94.60;;;;;;5008334;28;20130;-83
2022/03/06 06:45:53;;;;;;;22.00;10.70;;;-1.00;94.60;;;;;;5006422;28;20110;-85
2022/03/06 06:48:20;;;;;;;21.95;11.13;;;-1.00;94.60;;;;;;5006012;28;20142;-86
2022/03/06 06:50:47;;;;;;;23.35;10.65;;;-1.00;94.70;;;;;;5003382;28;20057;-83
2022/03/06 06:53:15;;;;;;;19.88;10.20;;;-1.00;94.80;;;;;;5004738;28;20140;-84
2022/03/06 06:55:42;;;;;;;19.83;10.10;;;-0.90;94.90;;;;;;4995552;28;20480;-84
2022/03/06 06:58:09;;;;;;;22.10;10.98;;;-0.90;94.90;;;;;;5004601;28;20042;-85
2022/03/06 07:00:36;;;;;;;22.63;10.82;;;-0.90;94.90;;;;;;4994668;28;20502;-85
2022/03/06 07:03:04;;;;;;;22.20;11.40;;;-0.80;95.00;;;;;;5003162;28;20381;-84
2022/03/06 07:05:31;;;;;;;22.38;10.95;;;-0.80;95.00;;;;;;5004124;28;20050;-85
2022/03/06 07:07:58;;;;;;;21.30;10.90;;;-0.70;95.00;;;;;;5005886;28;20042;-77
2022/03/06 07:10:26;;;;;;;25.48;12.70;;;-0.70;94.90;;;;;;5003663;28;20050;-86
2022/03/06 07:12:55;;;;;;;24.38;12.13;;;-0.60;94.90;;;;;;4999169;28;20117;-83
2022/03/06 07:15:28;;;;;;;26.05;12.35;;;-0.60;94.90;;;;;;4995032;28;20542;-85
2022/03/06 07:17:57;;;;;;;24.92;12.93;;;-0.60;95.00;;;;;;5004160;28;20054;-84
2022/03/06 07:20:25;;;;;;;23.98;11.43;;;-0.60;94.90;;;;;;5002537;28;20061;-82
2022/03/06 07:22:53;;;;;;;24.33;11.98;;;-0.50;94.90;;;;;;5001705;28;20057;-84
2022/03/06 07:25:20;;;;;;;22.92;11.35;;;-0.50;94.90;;;;;;5010461;28;20113;-89
2022/03/06 07:27:49;;;;;;;21.98;11.45;;;-0.50;94.90;;;;;;5004765;28;20484;-87
2022/03/06 07:30:16;;;;;;;21.20;11.10;;;-0.50;95.00;;;;;;5008755;28;20074;-83
2022/03/06 07:32:43;;;;;;;23.98;11.25;;;-0.40;95.20;;;;;;5011270;28;20078;-86
2022/03/06 07:35:11;;;;;;;23.27;11.13;;;-0.40;95.10;;;;;;5013085;28;20057;-85
2022/03/06 07:37:38;;;;;;;22.55;11.50;;;-0.40;95.20;;;;;;5010068;28;20054;-83
2022/03/06 07:40:08;;;;;;;23.33;11.75;;;-0.40;95.30;;;;;;5009436;28;20073;-84
2022/03/06 07:42:35;;;;;;;23.58;11.77;;;-0.40;95.50;;;;;;5008513;28;20042;-86
2022/03/06 07:45:05;;;;;;;23.65;11.75;;;-0.40;95.60;;;;;;5008717;28;20486;-84
2022/03/06 07:47:32;;;;;;;23.00;11.98;;;-0.30;95.70;;;;;;5011422;28;20129;-85
2022/03/06 07:49:59;;;;;;;21.75;11.65;;;-0.30;96.00;;;;;;5003450;28;20042;-83
2022/03/06 07:52:26;;;;;;;20.60;11.30;;;-0.20;96.20;;;;;;5009424;28;20106;-82
2022/03/06 07:54:53;;;;;;;23.88;11.25;;;-0.10;96.40;;;;;;5009452;28;20050;-81
2022/03/06 07:57:20;;;;;;;21.95;11.10;;;-0.10;96.30;;;;;;5009848;28;20132;-81
2022/03/06 07:59:47;;;;;;;22.13;11.20;;;0.00;96.20;;;;;;5008351;28;20106;-84
2022/03/06 08:02:16;;;;;;;23.15;12.65;;;0.10;96.10;;;;;;5008554;28;20117;-84
2022/03/06 08:04:43;;;;;;;22.90;11.82;;;0.20;96.00;;;;;;5010407;28;20051;-83
2022/03/06 08:07:10;;;;;;;20.73;11.65;;;0.30;95.90;;;;;;5003938;28;20125;-84
2022/03/06 08:09:37;;;;;;;23.58;12.13;;;0.40;95.80;;;;;;5009135;28;20081;-83
2022/03/06 08:12:05;;;;;;;22.65;11.27;;;0.50;95.90;;;;;;5011134;28;20085;-82
2022/03/06 08:14:32;;;;;;;26.40;12.50;;;0.60;95.50;;;;;;5006353;28;20038;-84
2022/03/06 08:16:59;;;;;;;23.05;11.82;;;0.60;95.50;;;;;;5008414;28;20068;-84
2022/03/06 08:19:28;;;;;;;25.48;12.27;;;0.70;95.40;;;;;;5002898;28;20054;-82
2022/03/06 08:21:55;;;;;;;20.77;11.80;;;0.80;95.40;;;;;;5003758;28;20054;-84
2022/03/06 08:24:23;;;;;;;24.85;12.10;;;0.80;95.30;;;;;;5004156;28;20137;-89
2022/03/06 08:26:50;;;;;;;23.15;12.38;;;0.90;95.30;;;;;;5002963;28;20050;-87
2022/03/06 08:29:17;;;;;;;20.75;11.70;;;1.00;95.20;;;;;;4999742;28;20053;-85
2022/03/06 08:31:44;;;;;;;25.02;12.90;;;1.00;95.10;;;;;;5002335;28;20074;-88
2022/03/06 08:34:11;;;;;;;22.42;12.57;;;1.10;95.20;;;;;;4997760;28;20046;-85
2022/03/06 08:36:39;;;;;;;23.45;12.55;;;1.20;94.90;;;;;;4999204;28;20050;-83
2022/03/06 08:39:07;;;;;;;20.17;11.40;;;1.20;94.90;;;;;;5001109;28;20052;-83
2022/03/06 08:41:34;;;;;;;24.55;13.93;;;1.30;94.90;;;;;;4996881;28;20093;-81
2022/03/06 08:44:01;;;;;;;26.73;14.10;;;1.30;94.60;;;;;;4996382;28;20050;-84
2022/03/06 08:46:28;;;;;;;23.60;12.48;;;1.40;94.50;;;;;;4995953;28;20050;-78
2022/03/06 08:48:55;;;;;;;23.38;12.25;;;1.40;94.60;;;;;;4996207;28;20129;-84
2022/03/06 08:51:23;;;;;;;25.95;14.15;;;1.50;94.60;;;;;;4996271;28;20050;-81
2022/03/06 08:53:51;;;;;;;26.70;14.27;;;1.50;94.20;;;;;;4996769;28;20065;-83
2022/03/06 08:56:18;;;;;;;23.23;13.18;;;1.60;94.20;;;;;;4995580;28;20042;-82
2022/03/06 08:58:45;;;;;;;23.05;12.32;;;1.70;94.20;;;;;;4999092;28;20110;-84
2022/03/06 09:01:12;;;;;;;22.35;11.82;;;1.70;94.10;;;;;;5004165;28;20153;-80
2022/03/06 09:03:39;;;;;;;21.38;11.25;;;1.80;93.90;;;;;;5003946;28;20141;-86
2022/03/06 09:06:06;;;;;;;23.50;11.95;;;1.90;93.80;;;;;;5003308;28;20410;-83
2022/03/06 09:08:33;;;;;;;20.55;11.50;;;2.00;93.50;;;;;;5002784;28;20050;-82
2022/03/06 09:11:02;;;;;;;20.42;11.65;;;2.10;93.40;;;;;;5006892;28;20077;-87
2022/03/06 09:13:30;;;;;;;23.42;12.30;;;2.10;93.30;;;;;;5002772;28;20081;-85
2022/03/06 09:15:57;;;;;;;21.92;12.02;;;2.20;93.30;;;;;;5003621;28;20092;-82
2022/03/06 09:18:24;;;;;;;24.33;13.00;;;2.30;93.00;;;;;;5001623;28;20107;-86
2022/03/06 09:20:51;;;;;;;21.77;11.98;;;2.40;92.90;;;;;;4997392;28;20053;-82
2022/03/06 09:23:18;;;;;;;20.23;11.18;;;2.50;92.90;;;;;;4995735;28;20051;-81
2022/03/06 09:25:45;;;;;;;22.80;11.80;;;2.60;92.50;;;;;;5000384;28;20054;-82
2022/03/06 09:28:14;;;;;;;22.05;11.68;;;2.60;92.20;;;;;;4997642;28;20065;-82
2022/03/06 09:30:42;;;;;;;19.65;11.27;;;2.70;92.00;;;;;;5001106;28;20057;-81
2022/03/06 09:33:09;;;;;;;22.67;11.77;;;2.80;91.50;;;;;;5003257;28;20077;-81
2022/03/06 09:35:37;;;;;;;22.35;11.50;;;2.80;91.20;;;;;;5001899;28;20567;-81
2022/03/06 09:38:04;;;;;;;19.83;11.18;;;2.90;90.70;;;;;;5002571;28;20129;-83
2022/03/06 09:40:31;;;;;;;20.67;10.90;;;3.00;89.50;;;;;;5003166;28;20134;-84
2022/03/06 09:42:58;;;;;;;19.55;10.88;;;3.10;88.60;;;;;;5002831;28;20142;-82
2022/03/06 09:45:34;;;;;;;17.42;9.60;;;3.20;88.30;;;;;;5001706;28;20050;-80
2022/03/06 09:48:05;;;;;;;19.20;9.57;;;3.30;88.00;;;;;;4992972;28;20043;-87
2022/03/06 09:50:33;;;;;;;19.75;9.90;;;3.40;87.00;;;;;;5000875;28;20046;-86
2022/03/06 09:53:00;;;;;;;18.60;9.60;;;3.50;85.80;;;;;;5003310;28;20138;-87
2022/03/06 09:55:28;;;;;;;17.55;9.30;;;3.60;84.80;;;;;;5004115;28;20050;-92
2022/03/06 09:57:58;;;;;;;16.48;9.25;;;3.70;82.90;;;;;;5003206;28;20046;-87
2022/03/06 10:00:27;;;;;;;17.58;9.52;;;3.70;81.00;;;;;;5001548;28;20046;-84
2022/03/06 10:02:57;;;;;;;16.92;9.27;;;3.80;79.30;;;;;;5003430;28;20049;-86
2022/03/06 10:05:34;;;;;;;17.35;9.00;;;3.90;77.90;;;;;;5002248;28;20101;-92
2022/03/06 10:08:23;;;;;;;17.08;8.93;;;4.10;77.40;;;;;;5004257;28;20050;-91
2022/03/06 10:10:54;;;;;;;17.27;8.88;;;4.20;75.90;;;;;;4999600;28;20693;-82
2022/03/06 10:13:28;;;;;;;15.52;8.35;;;4.30;73.40;;;;;;4997888;28;20046;-87
2022/03/06 10:18:51;;;;;;;17.70;9.27;;;4.50;73.60;;;;;;4973975;28;20070;-89
2022/03/06 10:21:22;;;;;;;14.20;8.60;;;4.60;71.50;;;;;;4973132;28;20086;-83
2022/03/06 10:23:52;;;;;;;16.15;8.88;;;4.70;70.10;;;;;;4942318;28;20070;-82
2022/03/06 10:26:22;;;;;;;15.25;9.00;;;4.70;68.40;;;;;;4933613;29;20055;-83
2022/03/06 10:28:56;;;;;;;15.55;7.95;;;4.80;65.80;;;;;;4970911;28;20887;-83
2022/03/06 10:31:25;;;;;;;16.88;8.23;;;4.90;64.40;;;;;;4973498;28;20055;-84
2022/03/06 10:34:13;;;;;;;14.85;8.00;;;4.90;63.50;;;;;;4968622;28;20062;-81
2022/03/06 10:36:44;;;;;;;13.82;8.18;;;5.00;62.20;;;;;;4943249;28;20443;-91
2022/03/06 10:39:15;;;;;;;14.43;8.13;;;5.00;61.30;;;;;;4969733;28;20050;-85
2022/03/06 10:41:45;;;;;;;15.35;8.73;;;5.10;61.50;;;;;;4952835;28;20059;-82
2022/03/06 10:44:13;;;;;;;15.52;8.70;;;5.20;62.00;;;;;;4953020;29;20055;-85
2022/03/06 10:46:42;;;;;;;17.05;8.90;;;5.20;61.30;;;;;;4949030;28;20055;-87
2022/03/06 10:49:13;;;;;;;14.02;8.07;;;5.20;61.40;;;;;;4936813;29;20067;-85
2022/03/06 10:51:43;;;;;;;15.02;8.75;;;5.30;61.70;;;;;;4950006;28;20047;-84
2022/03/06 10:54:13;;;;;;;15.00;8.55;;;5.40;61.10;;;;;;4936725;28;20433;-85
2022/03/06 10:56:40;;;;;;;14.85;8.80;;;5.40;60.20;;;;;;4957921;28;20047;-89
2022/03/06 10:59:08;;;;;;;15.55;9.32;;;5.40;59.70;;;;;;4937891;29;20564;-87
2022/03/06 11:01:38;;;;;;;17.13;9.35;;;5.40;59.50;;;;;;4940699;29;20052;-86
2022/03/06 11:04:07;;;;;;;15.98;9.13;;;5.50;59.50;;;;;;4939656;29;20493;-83
2022/03/06 11:06:40;;;;;;;17.13;8.65;;;5.60;58.70;;;;;;4957826;28;20116;-86
2022/03/06 11:09:12;;;;;;;15.65;8.82;;;5.60;59.50;;;;;;4959164;29;20053;-91
2022/03/06 11:11:41;;;;;;;16.52;8.52;;;5.80;60.50;;;;;;4958948;28;20047;-93
2022/03/06 11:14:09;;;;;;;15.55;8.55;;;6.00;58.90;;;;;;4924682;29;20103;-93
2022/03/06 11:16:38;;;;;;;15.57;8.90;;;6.10;58.10;;;;;;4924653;29;20123;-90
2022/03/06 11:19:06;;;;;;;14.50;8.55;;;6.30;57.30;;;;;;4940942;29;20052;-85
2022/03/06 11:21:38;;;;;;;17.30;8.52;;;6.30;56.10;;;;;;4955626;29;20048;-86
2022/03/06 11:24:12;;;;;;;12.38;7.82;;;6.30;55.70;;;;;;4964418;28;20042;-88
2022/03/06 11:27:02;;;;;;;18.67;11.13;;;6.30;54.80;;;;;;4977356;28;20065;-84
2022/03/06 11:30:08;;;;;;;18.92;10.40;;;6.40;54.30;;;;;;4976244;28;20050;-83
2022/03/06 11:32:39;;;;;;;14.93;8.27;;;6.40;54.40;;;;;;4956218;28;20054;-82
2022/03/06 11:35:10;;;;;;;15.75;8.27;;;6.40;54.10;;;;;;4955562;28;20572;-80
2022/03/06 11:37:55;;;;;;;15.55;8.70;;;6.40;53.70;;;;;;4956094;29;20051;-81
2022/03/06 11:40:45;;;;;;;13.90;8.65;;;6.40;53.60;;;;;;4938670;29;20055;-80
2022/03/06 11:43:13;;;;;;;14.13;7.97;;;6.40;53.30;;;;;;4956504;28;20066;-83
2022/03/06 11:45:49;;;;;;;14.73;8.05;;;6.40;53.20;;;;;;4957819;28;20059;-81
2022/03/06 11:49:11;;;;;;;14.57;8.23;;;6.50;52.80;;;;;;4955266;28;20477;-81
2022/03/06 11:51:46;;;;;;;14.00;7.97;;;6.50;52.30;;;;;;4944688;28;20050;-80
2022/03/06 11:54:43;;;;;;;13.75;7.50;;;6.60;51.70;;;;;;4959749;28;20540;-82
2022/03/06 11:57:10;;;;;;;14.45;8.45;;;6.60;51.80;;;;;;4957778;28;20043;-82
2022/03/06 11:59:46;;;;;;;14.00;7.90;;;6.60;51.60;;;;;;4974240;28;20481;-83
2022/03/06 12:02:22;;;;;;;13.55;7.43;;;6.70;52.10;;;;;;4973177;28;20042;-80
2022/03/06 12:04:56;;;;;;;14.52;8.40;;;6.90;52.40;;;;;;4956315;28;20051;-82
2022/03/06 12:07:25;;;;;;;12.05;7.55;;;7.00;51.40;;;;;;4949523;28;20381;-81
2022/03/06 12:09:54;;;;;;;13.60;7.88;;;7.20;51.30;;;;;;4958491;28;20053;-85
2022/03/06 12:12:23;;;;;;;15.45;9.23;;;7.30;50.70;;;;;;4954771;28;20097;-82
2022/03/06 12:14:53;;;;;;;17.40;9.32;;;7.40;50.50;;;;;;4960579;28;20134;-81
2022/03/06 12:17:38;;;;;;;16.20;9.25;;;7.50;51.10;;;;;;4955014;28;20065;-81
2022/03/06 12:20:31;;;;;;;16.13;9.30;;;7.60;51.40;;;;;;4953204;29;20054;-84
2022/03/06 12:23:06;;;;;;;15.10;8.50;;;7.70;50.60;;;;;;4971469;28;20094;-84
2022/03/06 12:25:37;;;;;;;13.65;8.85;;;7.80;50.40;;;;;;4975030;28;20134;-82
2022/03/06 12:28:40;;;;;;;16.23;8.80;;;7.90;50.20;;;;;;4975035;28;20057;-82
2022/03/06 12:31:37;;;;;;;15.35;9.00;;;8.00;50.00;;;;;;4974187;28;20050;-84
2022/03/06 12:34:37;;;;;;;14.93;8.57;;;7.90;48.90;;;;;;4953473;28;20050;-83
2022/03/06 12:37:05;;;;;;;14.43;8.88;;;7.90;49.40;;;;;;4967704;28;20058;-82
2022/03/06 12:39:37;;;;;;;14.48;9.00;;;7.90;49.30;;;;;;4955458;28;20055;-83
2022/03/06 12:42:07;;;;;;;12.80;7.90;;;7.90;49.20;;;;;;4955154;29;20057;-83
2022/03/06 12:44:39;;;;;;;19.00;10.93;;;8.00;49.40;;;;;;4954679;29;20099;-81
2022/03/06 12:47:06;;;;;;;16.30;9.02;;;8.20;49.50;;;;;;4971063;28;20087;-82
2022/03/06 12:49:33;;;;;;;15.25;9.43;;;8.30;48.50;;;;;;4966537;28;20162;-80
2022/03/06 12:52:01;;;;;;;15.60;9.20;;;8.40;48.00;;;;;;4957939;28;20485;-81
2022/03/06 12:54:33;;;;;;;13.82;8.40;;;8.40;47.60;;;;;;4951214;29;20052;-80
2022/03/06 12:57:01;;;;;;;15.32;8.85;;;8.40;47.70;;;;;;4962124;28;20133;-80
2022/03/06 12:59:29;;;;;;;14.10;8.93;;;8.40;47.30;;;;;;4957998;28;20055;-82
2022/03/06 13:01:56;;;;;;;12.90;8.13;;;8.40;47.10;;;;;;4955726;28;20055;-80
2022/03/06 13:04:24;;;;;;;13.15;8.32;;;8.40;47.50;;;;;;4944013;29;20051;-80
2022/03/06 13:06:53;;;;;;;13.52;8.30;;;8.60;47.40;;;;;;4953886;29;20781;-80
2022/03/06 13:09:34;;;;;;;14.07;8.38;;;8.90;47.80;;;;;;4953585;29;20513;-80
2022/03/06 13:12:02;;;;;;;12.80;8.07;;;9.20;47.60;;;;;;4951582;28;20047;-79
2022/03/06 13:14:36;;;;;;;13.10;7.88;;;9.60;47.40;;;;;;4968288;28;20511;-80
2022/03/06 13:17:07;;;;;;;12.98;8.57;;;9.70;46.70;;;;;;4973832;28;20130;-79
2022/03/06 13:19:43;;;;;;;13.35;8.25;;;10.00;45.80;;;;;;4971852;28;20055;-80
2022/03/06 13:22:15;;;;;;;23.65;14.15;;;10.30;45.30;;;;;;4964446;28;20055;-82
2022/03/06 13:24:45;;;;;;;15.13;9.63;;;10.40;43.30;;;;;;4954319;29;20703;-80
2022/03/06 13:27:14;;;;;;;13.18;8.50;;;10.30;43.30;;;;;;4954374;28;20051;-80
2022/03/06 13:29:43;;;;;;;12.85;8.27;;;10.40;43.70;;;;;;4954670;29;20051;-81
2022/03/06 13:32:25;;;;;;;12.45;7.97;;;10.70;43.50;;;;;;4967682;28;20054;-80
2022/03/06 13:34:52;;;;;;;11.73;8.10;;;10.90;43.00;;;;;;4959636;28;20407;-80
2022/03/06 13:37:19;;;;;;;12.07;7.85;;;11.00;42.50;;;;;;4953685;28;20415;-81
2022/03/06 13:39:54;;;;;;;13.30;8.43;;;11.30;42.70;;;;;;4973900;28;20046;-83
2022/03/06 13:42:31;;;;;;;13.13;8.30;;;11.60;42.20;;;;;;4971779;28;20065;-83
2022/03/06 13:45:00;;;;;;;16.40;10.70;;;11.70;41.40;;;;;;4934715;29;20043;-81
2022/03/06 13:47:28;;;;;;;13.18;8.57;;;11.90;41.70;;;;;;4965417;28;20057;-81
2022/03/06 13:50:02;;;;;;;15.40;9.63;;;12.00;41.20;;;;;;4971211;28;20122;-80
2022/03/06 13:52:37;;;;;;;15.00;9.70;;;12.10;40.90;;;;;;4973315;28;20082;-82
2022/03/06 13:55:06;;;;;;;13.10;9.15;;;12.20;41.70;;;;;;4973011;28;20381;-82
2022/03/06 13:57:33;;;;;;;14.18;8.90;;;12.50;41.10;;;;;;4972054;28;20670;-82
2022/03/06 14:00:21;;;;;;;13.80;8.63;;;12.60;40.20;;;;;;4971483;28;20133;-79
2022/03/06 14:02:48;;;;;;;12.70;8.57;;;12.50;39.60;;;;;;4972022;28;20062;-80
2022/03/06 14:05:15;;;;;;;14.68;8.60;;;12.20;39.60;;;;;;4954418;28;20155;-80
2022/03/06 14:07:42;;;;;;;14.48;8.48;;;11.90;39.60;;;;;;4936169;29;20390;-80
2022/03/06 14:10:09;;;;;;;14.07;8.98;;;11.60;40.10;;;;;;4959070;28;20045;-81
2022/03/06 14:12:36;;;;;;;12.50;8.35;;;11.40;40.50;;;;;;4970183;28;20385;-80
2022/03/06 14:15:23;;;;;;;13.52;8.60;;;11.20;40.70;;;;;;4971696;28;20061;-80
2022/03/06 14:17:53;;;;;;;12.00;8.02;;;11.00;40.80;;;;;;4971377;28;20121;-80
2022/03/06 14:20:20;;;;;;;13.52;8.38;;;10.80;41.10;;;;;;4971235;28;20172;-81
2022/03/06 14:22:47;;;;;;;12.27;8.18;;;10.70;41.00;;;;;;4958418;28;20059;-79
2022/03/06 14:25:14;;;;;;;13.05;8.30;;;10.50;41.20;;;;;;4953142;29;20051;-80
2022/03/06 14:27:41;;;;;;;14.30;9.25;;;10.50;41.30;;;;;;4952982;29;20510;-80
2022/03/06 14:30:10;;;;;;;12.50;8.55;;;10.50;41.70;;;;;;4952498;29;20055;-81
2022/03/06 14:32:38;;;;;;;15.02;9.48;;;10.40;41.50;;;;;;4952863;28;20671;-80
2022/03/06 14:35:07;;;;;;;16.02;9.57;;;10.20;41.80;;;;;;4968194;28;20055;-82
2022/03/06 14:37:34;;;;;;;14.10;8.98;;;10.10;41.80;;;;;;4963829;28;20093;-81
2022/03/06 14:40:01;;;;;;;15.18;9.23;;;10.00;42.40;;;;;;4973395;28;20051;-79
2022/03/06 14:42:28;;;;;;;14.27;8.82;;;10.00;42.30;;;;;;4972187;28;20047;-80
2022/03/06 14:44:55;;;;;;;13.02;8.73;;;10.00;42.40;;;;;;4971131;28;20053;-78
2022/03/06 14:47:22;;;;;;;13.38;8.68;;;9.90;42.50;;;;;;4954280;28;20057;-83
2022/03/06 14:49:51;;;;;;;13.38;8.70;;;9.80;42.60;;;;;;4953752;29;20059;-81
2022/03/06 14:52:18;;;;;;;13.57;8.57;;;9.70;42.50;;;;;;4953791;29;20055;-80
2022/03/06 14:54:45;;;;;;;11.48;8.15;;;9.60;42.50;;;;;;4954798;29;20426;-83
2022/03/06 14:57:13;;;;;;;12.40;7.85;;;9.40;42.80;;;;;;4953200;28;20581;-82
2022/03/06 14:59:40;;;;;;;13.18;8.65;;;9.40;48.40;;;;;;4951776;28;20066;-82
2022/03/06 15:02:07;;;;;;;12.45;7.63;;;9.30;43.30;;;;;;4943401;28;20066;-82
2022/03/06 15:04:34;;;;;;;13.18;8.27;;;9.20;43.30;;;;;;4945072;28;20047;-82
2022/03/06 15:07:03;;;;;;;13.55;8.65;;;9.20;43.40;;;;;;4952054;28;20051;-83
2022/03/06 15:09:30;;;;;;;12.32;8.02;;;9.10;43.70;;;;;;4953008;28;20255;-84
2022/03/06 15:11:58;;;;;;;13.00;8.40;;;9.10;43.80;;;;;;4954374;29;20054;-86
2022/03/06 15:14:25;;;;;;;14.25;8.13;;;9.00;43.80;;;;;;4958387;29;20055;-85
2022/03/06 15:16:53;;;;;;;13.95;9.13;;;8.90;44.00;;;;;;4958192;29;20063;-85
2022/03/06 15:19:20;;;;;;;12.65;7.88;;;8.60;43.50;;;;;;4962318;28;20058;-84
2022/03/06 15:21:47;;;;;;;13.13;8.27;;;8.50;44.40;;;;;;4970754;28;20089;-87
2022/03/06 15:24:17;;;;;;;12.65;7.65;;;8.40;44.60;;;;;;4937401;29;20086;-84
2022/03/06 15:26:44;;;;;;;13.02;8.30;;;8.30;44.90;;;;;;4938478;28;20101;-83
2022/03/06 15:29:11;;;;;;;12.55;7.85;;;8.20;45.10;;;;;;4951975;28;20536;-84
2022/03/06 15:31:38;;;;;;;13.60;8.98;;;8.10;45.30;;;;;;4936797;29;20047;-83
2022/03/06 15:34:06;;;;;;;14.02;8.32;;;7.90;45.40;;;;;;4952843;29;20059;-84
2022/03/06 15:36:33;;;;;;;14.27;8.40;;;7.80;45.60;;;;;;4953875;29;20051;-85
2022/03/06 15:39:00;;;;;;;12.90;8.05;;;7.80;45.70;;;;;;4953955;29;20141;-86
2022/03/06 15:41:29;;;;;;;13.13;8.35;;;7.80;45.80;;;;;;4955033;29;20134;-85
2022/03/06 15:43:57;;;;;;;12.38;8.15;;;7.90;45.80;;;;;;4937183;29;20614;-83
2022/03/06 15:46:26;;;;;;;15.00;8.73;;;7.90;45.60;;;;;;4969906;28;20055;-85
2022/03/06 15:48:53;;;;;;;13.10;7.70;;;7.90;45.70;;;;;;4976090;28;20051;-86
2022/03/06 15:51:20;;;;;;;12.82;8.15;;;8.00;45.70;;;;;;4959400;28;20382;-84
2022/03/06 15:53:47;;;;;;;13.52;8.23;;;8.10;45.80;;;;;;4957991;29;20051;-86
2022/03/06 15:56:14;;;;;;;12.77;7.80;;;8.80;46.20;;;;;;4956782;29;20142;-84
2022/03/06 15:58:43;;;;;;;12.68;7.88;;;10.00;45.00;;;;;;4955354;28;20051;-82
2022/03/06 16:01:10;;;;;;;12.25;7.97;;;11.60;43.20;;;;;;4947056;28;20047;-84
2022/03/06 16:03:37;;;;;;;12.82;8.32;;;12.80;41.80;;;;;;4923150;29;20188;-85
2022/03/06 16:06:05;;;;;;;11.27;8.02;;;13.00;39.50;;;;;;4921208;29;20050;-81
2022/03/06 16:08:32;;;;;;;11.18;7.78;;;12.60;38.90;;;;;;4939835;28;20051;-83
2022/03/06 16:10:59;;;;;;;14.27;8.40;;;12.10;44.60;;;;;;4938627;29;20134;-85
2022/03/06 16:13:27;;;;;;;10.82;7.35;;;11.40;39.30;;;;;;4954911;29;20150;-83
2022/03/06 16:15:55;;;;;;;12.20;7.90;;;10.90;46.20;;;;;;4957092;29;20050;-84
2022/03/06 16:18:23;;;;;;;12.93;8.77;;;10.40;47.90;;;;;;4941474;29;20121;-85
2022/03/06 16:20:50;;;;;;;12.55;8.00;;;9.70;41.30;;;;;;4939923;29;20493;-87
2022/03/06 16:23:17;;;;;;;14.43;8.75;;;9.20;41.90;;;;;;4925516;29;20134;-84
2022/03/06 16:25:44;;;;;;;11.98;7.60;;;8.50;42.40;;;;;;4940667;29;20544;-82
2022/03/06 16:28:11;;;;;;;13.18;8.27;;;8.40;43.10;;;;;;4953643;29;20523;-82
2022/03/06 16:30:39;;;;;;;14.68;9.20;;;8.10;43.70;;;;;;4953997;29;20441;-80
2022/03/06 16:33:08;;;;;;;14.82;8.45;;;7.80;44.40;;;;;;4954177;29;20136;-80
2022/03/06 16:35:35;;;;;;;12.48;7.80;;;7.50;44.90;;;;;;4927647;29;20602;-80
2022/03/06 16:38:03;;;;;;;11.65;7.47;;;7.20;45.30;;;;;;4934990;29;20420;-81
2022/03/06 16:40:30;;;;;;;13.40;7.53;;;7.10;45.80;;;;;;4953613;28;20571;-80
2022/03/06 16:42:57;;;;;;;10.88;7.00;;;7.00;46.00;;;;;;4973744;28;20047;-80
2022/03/06 16:45:25;;;;;;;12.48;7.72;;;6.80;46.30;;;;;;4958232;28;20071;-83
2022/03/06 16:47:52;;;;;;;13.55;7.93;;;6.70;46.60;;;;;;4964509;28;20423;-81
2022/03/06 16:50:20;;;;;;;11.70;7.72;;;6.60;46.90;;;;;;4951909;28;20047;-88
2022/03/06 16:52:47;;;;;;;11.27;7.30;;;6.40;47.20;;;;;;4952261;29;20054;-82
2022/03/06 16:55:14;;;;;;;11.90;7.88;;;6.30;47.40;;;;;;4952550;29;20509;-83
2022/03/06 16:57:41;;;;;;;11.23;7.10;;;6.30;47.70;;;;;;4954559;28;20043;-85
2022/03/06 17:00:10;;;;;;;11.43;7.10;;;6.10;47.80;;;;;;4952090;29;20490;-84
2022/03/06 17:02:37;;;;;;;13.52;7.40;;;6.10;48.10;;;;;;4935902;29;20044;-84
2022/03/06 17:05:05;;;;;;;14.80;8.80;;;6.00;48.30;;;;;;4943743;29;20043;-86
2022/03/06 17:07:34;;;;;;;14.27;8.63;;;6.00;48.40;;;;;;4955669;29;20507;-84
2022/03/06 17:10:01;;;;;;;14.05;8.35;;;5.90;48.30;;;;;;4959979;28;20059;-83
2022/03/06 17:12:28;;;;;;;14.90;8.68;;;5.80;48.30;;;;;;4951680;29;20500;-84
2022/03/06 17:14:56;;;;;;;12.35;8.00;;;5.80;48.50;;;;;;4953326;28;20079;-82
2022/03/06 17:17:23;;;;;;;12.05;7.90;;;5.70;48.70;;;;;;4953940;29;20142;-84
2022/03/06 17:19:51;;;;;;;11.85;7.40;;;5.60;48.80;;;;;;4954439;29;20151;-84
2022/03/06 17:22:19;;;;;;;12.15;7.32;;;5.50;49.00;;;;;;4954449;28;20051;-84
2022/03/06 17:24:47;;;;;;;12.63;8.02;;;5.40;49.10;;;;;;4949301;28;20061;-85
2022/03/06 17:27:15;;;;;;;11.68;7.65;;;5.30;49.10;;;;;;4947641;28;20058;-87
2022/03/06 17:29:42;;;;;;;11.85;7.78;;;5.30;49.40;;;;;;4955641;28;20057;-90
2022/03/06 17:32:09;;;;;;;12.63;8.07;;;5.20;49.60;;;;;;4951378;29;20588;-93
2022/03/06 17:34:37;;;;;;;12.38;7.40;;;5.20;49.90;;;;;;4968901;29;20043;-93
2022/03/06 17:37:04;;;;;;;13.85;8.05;;;5.20;50.00;;;;;;4946789;29;20083;-92
2022/03/06 17:39:31;;;;;;;13.30;8.07;;;5.10;50.10;;;;;;4963434;29;20107;-92
2022/03/06 17:42:00;;;;;;;12.38;7.82;;;5.10;50.30;;;;;;4964293;29;20082;-92
2022/03/06 17:44:27;;;;;;;11.05;7.22;;;5.10;50.30;;;;;;4965442;29;20054;-92
2022/03/06 17:46:54;;;;;;;12.18;7.43;;;5.00;50.40;;;;;;4961769;29;20047;-90
2022/03/06 17:49:21;;;;;;;14.00;8.32;;;5.10;50.60;;;;;;4957737;28;20128;-89
2022/03/06 17:51:49;;;;;;;12.18;8.10;;;5.00;50.60;;;;;;4961048;28;20597;-91
2022/03/06 17:54:17;;;;;;;12.52;7.72;;;5.00;50.70;;;;;;4949920;28;20464;-79
2022/03/06 17:56:44;;;;;;;12.00;7.18;;;5.00;50.80;;;;;;4954209;29;20393;-83
2022/03/06 17:59:12;;;;;;;13.57;7.80;;;5.00;50.90;;;;;;4953393;29;20051;-84
2022/03/06 18:01:40;;;;;;;12.68;7.70;;;5.00;51.10;;;;;;4952228;28;20090;-81
2022/03/06 18:04:08;;;;;;;11.13;7.63;;;5.00;51.20;;;;;;4951249;29;20493;-81
2022/03/06 18:06:35;;;;;;;12.70;7.63;;;5.00;51.20;;;;;;4952368;29;20146;-81
2022/03/06 18:09:03;;;;;;;11.40;7.45;;;4.90;51.20;;;;;;4950268;28;20051;-83
2022/03/06 18:11:30;;;;;;;13.25;7.70;;;4.90;51.40;;;;;;4950374;29;20113;-82
2022/03/06 18:13:57;;;;;;;12.23;7.20;;;4.80;51.60;;;;;;4950166;29;20047;-81
2022/03/06 18:16:25;;;;;;;11.48;7.70;;;4.80;51.70;;;;;;4952912;28;20051;-82
2022/03/06 18:18:52;;;;;;;11.68;7.78;;;4.80;51.90;;;;;;4952087;29;20058;-79
2022/03/06 18:21:20;;;;;;;12.38;7.65;;;4.70;52.10;;;;;;4936084;29;20079;-79
2022/03/06 18:23:47;;;;;;;12.32;7.65;;;4.60;52.20;;;;;;4951430;29;20398;-83
2022/03/06 18:26:17;;;;;;;11.88;7.97;;;4.60;52.30;;;;;;4964795;28;20058;-82
2022/03/06 18:28:45;;;;;;;13.18;7.93;;;4.60;52.40;;;;;;4950703;28;20055;-86
2022/03/06 18:31:39;;;;;;;13.02;8.07;;;4.60;52.60;;;;;;4952183;29;20063;-86
2022/03/06 18:34:09;;;;;;;13.88;8.13;;;4.50;52.70;;;;;;4952807;28;20047;-85
2022/03/06 18:36:37;;;;;;;11.55;7.97;;;4.50;52.70;;;;;;4960832;28;20423;-86
2022/03/06 18:39:05;;;;;;;14.00;8.45;;;4.40;52.70;;;;;;4959045;28;20050;-82
2022/03/06 18:41:33;;;;;;;11.88;7.90;;;4.40;52.90;;;;;;4947646;28;20440;-81
2022/03/06 18:44:00;;;;;;;11.75;7.70;;;4.30;53.00;;;;;;4938055;29;20055;-81
2022/03/06 18:46:28;;;;;;;12.40;7.60;;;4.30;53.10;;;;;;4949719;28;20065;-80
2022/03/06 18:48:56;;;;;;;12.48;8.23;;;4.30;53.20;;;;;;4951658;29;20055;-82
2022/03/06 18:51:24;;;;;;;12.05;8.20;;;4.40;53.30;;;;;;4950731;28;20059;-80
2022/03/06 18:53:51;;;;;;;13.20;8.05;;;4.30;53.30;;;;;;4951644;28;20493;-81